Time;durP1;ratioP1;P1;durP2;ratioP2;P2;SDS_P1;SDS_P2;PMS_P1;PMS_P2;Temp;Humidity;BMP_temperature;BMP_pressure;BME280_temperature;BME280_humidity;BME280_pressure;Samples;Min_cycle;Max_cycle;Signal;HPM_P1;HPM_P2
2022/04/17 00:01:32;;;;;;;7.47;3.55;;;;;;;6.75;50.90;100423.75;5163011;28;20217;-72
2022/04/17 00:04:22;;;;;;;8.23;3.70;;;;;;;6.79;50.93;100418.25;5162125;28;20543;-72
2022/04/17 00:07:12;;;;;;;8.93;3.88;;;;;;;6.67;50.74;100421.56;5163517;28;20051;-73
2022/04/17 00:10:03;;;;;;;5.93;3.58;;;;;;;6.48;51.34;100403.25;5163494;28;20054;-72
2022/04/17 00:12:54;;;;;;;5.97;3.40;;;;;;;6.46;50.29;100425.38;5161005;28;20054;-73
2022/04/17 00:15:44;;;;;;;8.23;3.42;;;;;;;6.13;51.43;100396.41;5156932;28;20640;-72
2022/04/17 00:18:35;;;;;;;5.78;3.53;;;;;;;6.77;50.63;100428.03;5162968;28;20061;-72
2022/04/17 00:21:25;;;;;;;7.32;4.05;;;;;;;6.88;50.42;100416.88;5156984;28;20192;-71
2022/04/17 00:24:15;;;;;;;6.30;3.67;;;;;;;7.00;49.92;100416.19;5162523;28;20421;-71
2022/04/17 00:27:05;;;;;;;8.15;3.85;;;;;;;7.31;49.03;100409.16;5162683;28;20058;-71
2022/04/17 00:29:56;;;;;;;9.20;4.10;;;;;;;6.84;50.05;100410.09;5159428;28;20057;-72
2022/04/17 00:32:46;;;;;;;7.03;3.72;;;;;;;6.64;50.60;100402.44;5160805;28;20129;-71
2022/04/17 00:35:35;;;;;;;7.68;3.80;;;;;;;6.48;50.01;100405.03;5158545;28;20422;-72
2022/04/17 00:38:26;;;;;;;5.53;3.70;;;;;;;6.87;49.33;100398.53;5161479;28;20090;-71
2022/04/17 00:41:16;;;;;;;6.95;3.97;;;;;;;6.67;49.54;100386.44;5157985;28;20057;-71
2022/04/17 00:44:11;;;;;;;6.80;3.53;;;;;;;6.59;49.96;100385.09;5161267;28;20185;-71
2022/04/17 00:47:02;;;;;;;5.90;3.53;;;;;;;6.57;49.20;100368.50;5162423;28;20070;-71
2022/04/17 00:49:52;;;;;;;9.50;3.25;;;;;;;6.66;49.43;100368.94;5162655;28;20132;-71
2022/04/17 00:52:44;;;;;;;5.28;3.40;;;;;;;6.60;49.67;100378.03;5162699;28;20169;-71
2022/04/17 00:55:34;;;;;;;6.90;3.58;;;;;;;6.59;49.66;100366.66;5162296;28;20065;-72
2022/04/17 00:58:29;;;;;;;10.88;3.58;;;;;;;6.68;49.50;100369.69;5162350;28;20135;-71
2022/04/17 01:01:19;;;;;;;10.32;3.70;;;;;;;6.59;49.16;100374.56;5159606;28;20109;-71
2022/04/17 01:04:10;;;;;;;5.25;3.15;;;;;;;6.77;49.45;100377.09;5161044;28;20057;-71
2022/04/17 01:07:00;;;;;;;5.07;3.38;;;;;;;6.92;48.71;100384.16;5159239;28;20061;-71
2022/04/17 01:09:53;;;;;;;5.07;3.40;;;;;;;6.79;48.66;100380.50;5161940;28;20069;-71
2022/04/17 01:12:44;;;;;;;7.13;3.03;;;;;;;6.93;48.92;100372.66;5159785;28;20140;-72
2022/04/17 01:15:36;;;;;;;4.70;3.00;;;;;;;6.68;49.37;100359.16;5161588;28;20539;-72
2022/04/17 01:18:27;;;;;;;5.05;3.30;;;;;;;6.69;49.66;100359.06;5161856;28;20050;-71
2022/04/17 01:21:17;;;;;;;6.45;2.78;;;;;;;6.71;49.12;100356.34;5161497;28;20062;-71
2022/04/17 01:27:19;;;;;;;6.15;3.30;;;;;;;6.42;49.49;100350.88;5161617;28;20057;-71
2022/04/17 01:30:10;;;;;;;6.07;3.30;;;;;;;6.56;49.79;100372.09;5161931;28;20651;-71
2022/04/17 01:33:00;;;;;;;9.15;4.65;;;;;;;6.63;49.62;100358.56;5161498;28;20584;-71
2022/04/17 01:35:50;;;;;;;5.45;3.22;;;;;;;6.68;49.36;100348.59;5161585;28;20061;-71
2022/04/17 01:38:40;;;;;;;7.22;3.05;;;;;;;6.40;50.57;100344.03;5161911;28;20053;-71
2022/04/17 01:41:30;;;;;;;6.55;3.53;;;;;;;6.67;49.32;100344.28;5157905;28;20060;-71
2022/04/17 01:44:22;;;;;;;4.57;2.85;;;;;;;6.36;50.18;100345.97;5160979;28;20053;-72
2022/04/17 01:47:12;;;;;;;7.07;3.38;;;;;;;6.23;50.33;100344.94;5160108;28;20541;-72
2022/04/17 01:50:02;;;;;;;3.40;2.70;;;;;;;6.14;50.45;100348.06;5161636;28;20058;-72
2022/04/17 01:52:53;;;;;;;8.98;3.30;;;;;;;6.14;50.46;100342.81;5158211;28;20449;-71
2022/04/17 01:55:43;;;;;;;7.72;3.17;;;;;;;5.87;51.29;100344.16;5160813;28;20417;-71
2022/04/17 01:58:33;;;;;;;3.78;2.90;;;;;;;5.76;51.58;100346.50;5161588;28;20113;-71
2022/04/17 02:01:23;;;;;;;6.22;2.97;;;;;;;5.82;51.54;100340.91;5159112;28;20094;-71
2022/04/17 02:04:14;;;;;;;4.53;2.97;;;;;;;5.74;52.15;100321.19;5160353;28;20065;-72
2022/04/17 02:07:05;;;;;;;5.75;3.67;;;;;;;5.76;52.08;100340.38;5161244;28;20552;-72
2022/04/17 02:09:55;;;;;;;5.78;3.13;;;;;;;5.51;51.76;100341.66;5156021;28;20415;-72
2022/04/17 02:12:46;;;;;;;8.48;3.25;;;;;;;5.37;52.05;100331.00;5160327;28;20053;-71
2022/04/17 02:15:37;;;;;;;6.90;3.20;;;;;;;5.35;52.73;100338.09;5160977;28;20073;-71
2022/04/17 02:18:28;;;;;;;7.35;3.17;;;;;;;5.49;52.24;100327.72;5161482;28;20182;-71
2022/04/17 02:21:20;;;;;;;6.75;3.05;;;;;;;5.49;52.72;100329.50;5161343;28;20057;-71
2022/04/17 02:24:10;;;;;;;5.53;3.15;;;;;;;5.31;52.60;100308.47;5161927;28;20054;-72
2022/04/17 02:27:00;;;;;;;5.65;3.17;;;;;;;5.54;52.41;100311.72;5164351;28;20066;-71
2022/04/17 02:29:50;;;;;;;7.40;3.03;;;;;;;5.40;51.88;100301.91;5163531;28;20144;-71
2022/04/17 02:32:40;;;;;;;4.38;2.70;;;;;;;5.48;52.52;100315.50;5167601;28;20578;-72
2022/04/17 02:35:30;;;;;;;5.28;3.78;;;;;;;5.76;51.98;100314.06;5167093;28;20054;-72
2022/04/17 02:38:20;;;;;;;5.20;3.40;;;;;;;5.66;52.25;100313.69;5164746;28;20054;-71
2022/04/17 02:41:10;;;;;;;8.05;3.67;;;;;;;5.58;52.63;100300.09;5159957;28;20126;-71
2022/04/17 02:44:00;;;;;;;6.03;3.38;;;;;;;5.81;52.16;100307.63;5162012;28;20542;-72
2022/04/17 02:50:00;;;;;;;5.63;3.65;;;;;;;5.37;53.21;100295.03;5164754;28;20054;-72
2022/04/17 02:52:53;;;;;;;5.20;3.58;;;;;;;5.47;52.39;100305.06;5164955;28;20042;-72
2022/04/17 02:55:44;;;;;;;5.90;3.60;;;;;;;5.53;52.58;100299.47;5163318;28;20077;-72
2022/04/17 02:58:35;;;;;;;7.25;3.60;;;;;;;5.40;52.46;100270.34;5161137;28;20192;-72
2022/04/17 03:07:44;;;;;;;7.10;3.33;;;;;;;5.41;52.62;100296.56;5161484;28;20065;-72
2022/04/17 03:10:36;;;;;;;6.68;3.35;;;;;;;5.07;53.17;100289.56;5164253;28;20092;-71
2022/04/17 03:13:26;;;;;;;6.53;3.92;;;;;;;4.89;52.88;100296.56;5164076;28;20077;-71
2022/04/17 03:16:17;;;;;;;6.05;3.90;;;;;;;4.83;52.90;100291.59;5163947;28;20140;-72
2022/04/17 03:19:07;;;;;;;4.70;3.53;;;;;;;4.78;53.93;100283.09;5159420;28;20417;-71
2022/04/17 03:21:57;;;;;;;5.47;3.60;;;;;;;4.82;54.08;100275.91;5164264;28;20076;-71
2022/04/17 03:24:47;;;;;;;9.77;4.13;;;;;;;4.95;53.41;100274.38;5159542;28;20205;-71
2022/04/17 03:27:37;;;;;;;8.80;4.18;;;;;;;5.12;52.92;100290.16;5163814;28;20056;-71
2022/04/17 03:30:27;;;;;;;5.88;3.90;;;;;;;4.98;53.52;100299.66;5162598;28;20057;-71
2022/04/17 03:33:17;;;;;;;7.63;3.92;;;;;;;4.57;54.07;100289.38;5163276;28;20429;-71
2022/04/17 03:36:07;;;;;;;4.93;3.20;;;;;;;4.52;53.72;100313.25;5163748;28;20424;-72
2022/04/17 03:38:57;;;;;;;6.55;3.67;;;;;;;4.51;54.55;100306.31;5162600;28;20472;-71
2022/04/17 03:41:47;;;;;;;5.53;3.42;;;;;;;4.45;54.97;100304.81;5162881;28;20057;-71
2022/04/17 03:44:38;;;;;;;7.72;3.63;;;;;;;4.41;54.98;100290.16;5163529;28;20054;-71
2022/04/17 03:47:28;;;;;;;5.03;3.58;;;;;;;4.42;55.20;100296.25;5163576;28;20069;-72
2022/04/17 03:50:18;;;;;;;6.68;3.35;;;;;;;4.68;54.85;100298.47;5159663;28;20568;-71
2022/04/17 03:53:09;;;;;;;6.05;3.70;;;;;;;5.26;52.73;100301.75;5162014;28;20061;-71
2022/04/17 03:55:59;;;;;;;5.68;3.65;;;;;;;4.99;53.08;100291.69;5163274;28;20053;-71
2022/04/17 03:58:49;;;;;;;5.80;3.60;;;;;;;5.47;52.17;100284.88;5163319;28;20069;-71
2022/04/17 04:01:39;;;;;;;5.10;3.30;;;;;;;4.98;53.21;100283.91;5162215;28;20089;-71
2022/04/17 04:04:30;;;;;;;5.32;3.65;;;;;;;5.00;53.48;100285.53;5163470;28;20555;-71
2022/04/17 04:07:20;;;;;;;4.55;3.33;;;;;;;4.81;53.91;100287.38;5157475;28;20050;-71
2022/04/17 04:10:10;;;;;;;6.05;3.97;;;;;;;4.62;53.91;100285.63;5163082;28;20058;-71
2022/04/17 04:13:01;;;;;;;4.22;3.35;;;;;;;4.64;54.38;100275.06;5162575;28;20525;-71
2022/04/17 04:15:55;;;;;;;6.68;3.50;;;;;;;4.96;53.31;100281.31;5163041;28;20129;-71
2022/04/17 04:18:45;;;;;;;6.63;4.03;;;;;;;4.55;54.46;100280.75;5162327;28;20047;-71
2022/04/17 04:21:47;;;;;;;9.90;3.70;;;;;;;4.48;55.07;100278.41;5159661;28;20050;-71
2022/04/17 04:24:37;;;;;;;6.32;3.80;;;;;;;4.82;53.58;100275.91;5162826;28;20046;-72
2022/04/17 04:30:36;;;;;;;6.60;3.50;;;;;;;4.48;54.81;100281.03;5162763;28;20113;-70
2022/04/17 04:33:26;;;;;;;13.73;4.20;;;;;;;4.52;55.00;100279.13;5161963;28;20053;-71
2022/04/17 04:36:16;;;;;;;6.25;3.70;;;;;;;4.92;53.60;100283.25;5162368;28;20144;-71
2022/04/17 04:39:06;;;;;;;7.75;3.95;;;;;;;4.80;52.77;100230.47;5163778;28;20113;-72
2022/04/17 04:41:56;;;;;;;7.25;3.72;;;;;;;4.85;53.30;100263.47;5158761;28;20046;-71
2022/04/17 04:44:47;;;;;;;6.88;3.70;;;;;;;4.72;54.34;100289.50;5164083;28;20077;-71
2022/04/17 04:47:37;;;;;;;8.20;4.28;;;;;;;4.85;54.08;100283.66;5157766;28;20463;-71
2022/04/17 04:50:28;;;;;;;7.60;4.70;;;;;;;4.94;54.14;100283.19;5161609;28;20073;-71
2022/04/17 04:53:17;;;;;;;6.65;3.92;;;;;;;4.69;54.00;100279.13;5161604;28;20073;-71
2022/04/17 04:56:08;;;;;;;7.57;4.25;;;;;;;4.59;54.71;100298.91;5161845;28;20104;-72
2022/04/17 04:58:58;;;;;;;8.48;4.15;;;;;;;4.82;53.93;100299.56;5162573;28;20046;-71
2022/04/17 05:01:49;;;;;;;7.25;4.30;;;;;;;4.76;54.63;100279.69;5156953;28;20061;-71
2022/04/17 05:04:40;;;;;;;4.78;3.92;;;;;;;4.87;54.41;100264.25;5161795;28;20144;-71
2022/04/17 05:07:30;;;;;;;11.15;4.40;;;;;;;5.15;53.78;100286.53;5161785;28;20077;-70
2022/04/17 05:10:20;;;;;;;7.22;4.47;;;;;;;5.11;53.99;100259.53;5160849;28;20046;-71
2022/04/17 05:13:11;;;;;;;6.65;4.03;;;;;;;5.16;54.68;100278.53;5160970;28;20480;-71
2022/04/17 05:16:02;;;;;;;5.93;4.28;;;;;;;5.25;53.74;100286.91;5161810;28;20572;-70
2022/04/17 05:19:18;;;;;;;6.63;4.28;;;;;;;5.15;54.54;100290.00;5161219;28;20042;-71
2022/04/17 05:22:06;;;;;;;6.22;4.00;;;;;;;5.32;54.30;100275.13;5162186;28;20050;-71
2022/04/17 05:24:56;;;;;;;7.50;4.40;;;;;;;5.30;54.00;100277.00;5162007;28;20069;-72
2022/04/17 05:27:46;;;;;;;7.93;4.65;;;;;;;5.53;53.73;100271.41;5156155;28;20065;-72
2022/04/17 05:30:36;;;;;;;8.45;4.30;;;;;;;5.28;54.16;100281.50;5162070;28;20445;-72
2022/04/17 05:33:26;;;;;;;7.85;3.97;;;;;;;5.48;53.90;100281.31;5161784;28;20065;-71
2022/04/17 05:36:16;;;;;;;6.63;4.28;;;;;;;5.69;53.47;100286.38;5157881;28;20128;-71
2022/04/17 05:39:06;;;;;;;6.75;3.80;;;;;;;5.66;53.86;100292.63;5161559;28;20053;-71
2022/04/17 05:41:58;;;;;;;8.25;4.90;;;;;;;5.79;53.80;100292.84;5161315;28;20537;-72
2022/04/17 05:44:49;;;;;;;7.78;4.05;;;;;;;5.97;52.97;100296.31;5160426;28;20564;-71
2022/04/17 05:47:39;;;;;;;7.22;4.35;;;;;;;6.16;52.54;100298.78;5156774;28;20804;-72
2022/04/17 05:50:30;;;;;;;7.32;4.97;;;;;;;6.55;51.59;100301.84;5160870;28;20109;-72
2022/04/17 05:53:20;;;;;;;11.93;6.85;;;;;;;6.67;51.33;100302.94;5161859;28;20064;-72
2022/04/17 05:56:10;;;;;;;8.45;4.22;;;;;;;6.69;51.07;100298.44;5161389;28;20485;-71
2022/04/17 05:59:01;;;;;;;6.93;4.07;;;;;;;6.76;50.41;100304.22;5156186;28;20133;-71
2022/04/17 06:01:51;;;;;;;6.03;4.07;;;;;;;6.88;50.37;100292.97;5160266;28;20453;-72
2022/04/17 06:04:42;;;;;;;9.30;4.30;;;;;;;6.95;49.92;100275.00;5161154;28;20165;-72
2022/04/17 06:07:32;;;;;;;10.68;3.88;;;;;;;7.48;48.52;100284.16;5161348;28;20100;-72
2022/04/17 06:10:22;;;;;;;8.48;4.22;;;;;;;7.25;49.22;100289.03;5161061;28;20140;-72
2022/04/17 06:13:12;;;;;;;4.95;3.50;;;;;;;7.57;48.66;100288.03;5159529;28;20493;-72
2022/04/17 06:16:03;;;;;;;7.57;3.67;;;;;;;7.57;48.76;100290.69;5160370;28;20054;-72
2022/04/17 06:18:53;;;;;;;7.97;3.63;;;;;;;7.58;48.41;100295.84;5160948;28;20064;-71
2022/04/17 06:21:43;;;;;;;4.93;3.25;;;;;;;7.71;48.17;100286.25;5154367;28;20080;-72
2022/04/17 06:24:33;;;;;;;5.05;3.60;;;;;;;7.86;48.42;100278.34;5151814;28;20186;-71
2022/04/17 06:27:23;;;;;;;8.35;3.40;;;;;;;7.87;47.88;100280.88;5156602;28;20050;-72
2022/04/17 06:30:19;;;;;;;10.77;4.60;;;;;;;7.94;47.33;100287.47;5156106;28;20640;-72
2022/04/17 06:33:09;;;;;;;6.00;3.60;;;;;;;7.93;48.51;100284.94;5160563;28;20416;-72
2022/04/17 06:35:59;;;;;;;6.20;3.72;;;;;;;7.86;47.84;100279.19;5155184;28;20509;-72
2022/04/17 06:38:49;;;;;;;6.75;3.95;;;;;;;8.34;48.15;100284.94;5161248;28;20050;-70
2022/04/17 06:41:40;;;;;;;10.27;3.67;;;;;;;8.50;45.92;100291.94;5154587;28;20053;-72
2022/04/17 06:44:30;;;;;;;6.70;3.50;;;;;;;8.34;46.53;100279.66;5160912;28;20061;-71
2022/04/17 06:47:20;;;;;;;6.15;3.25;;;;;;;8.48;46.42;100276.19;5159616;28;20548;-71
2022/04/17 06:50:11;;;;;;;7.95;4.40;;;;;;;7.69;45.81;100153.50;5166905;23;20106;-86
2022/04/17 06:53:01;;;;;;;6.22;3.67;;;;;;;8.68;45.07;100256.38;5133915;28;20063;-86
2022/04/17 06:55:52;;;;;;;5.40;3.22;;;;;;;8.49;45.37;100259.38;5120830;28;20122;-84
2022/04/17 06:58:42;;;;;;;4.60;3.05;;;;;;;8.75;45.77;100257.69;5129539;28;20130;-86
2022/04/17 07:01:32;;;;;;;8.55;3.38;;;;;;;8.45;44.83;100154.81;5133223;28;20043;-85
2022/04/17 07:04:23;;;;;;;9.52;3.10;;;;;;;9.02;44.29;100248.84;5131474;28;20078;-86
2022/04/17 07:07:13;;;;;;;5.53;3.03;;;;;;;8.98;45.44;100239.44;5127946;28;20058;-85
2022/04/17 07:10:04;;;;;;;5.70;3.10;;;;;;;9.12;45.02;100241.97;5136233;28;20063;-85
2022/04/17 07:12:54;;;;;;;5.53;3.03;;;;;;;9.32;44.44;100236.16;5147714;28;20357;-86
2022/04/17 07:15:45;;;;;;;4.05;2.55;;;;;;;9.94;43.82;100258.38;5143797;28;20058;-85
2022/04/17 07:18:35;;;;;;;5.32;2.92;;;;;;;9.86;43.50;100225.31;5123889;28;20066;-84
2022/04/17 07:21:27;;;;;;;6.40;3.53;;;;;;;10.57;42.46;100226.38;5134258;28;20609;-83
2022/04/17 07:24:17;;;;;;;5.13;3.03;;;;;;;11.38;42.43;100215.88;5109627;28;20101;-85
2022/04/17 07:27:09;;;;;;;5.68;2.65;;;;;;;11.56;40.51;100216.28;5138130;28;20135;-85
2022/04/17 07:30:01;;;;;;;5.38;2.80;;;;;;;11.96;40.32;100190.06;5117057;28;20047;-85
2022/04/17 07:32:53;;;;;;;4.22;2.60;;;;;;;12.40;38.18;100228.16;5123185;28;20182;-86
2022/04/17 07:35:44;;;;;;;5.60;2.50;;;;;;;12.63;38.20;100213.78;5125078;28;20077;-86
2022/04/17 07:38:35;;;;;;;5.57;2.78;;;;;;;13.85;36.67;100225.66;5125775;28;20055;-86
2022/04/17 07:41:25;;;;;;;3.75;2.22;;;;;;;14.37;35.56;100210.34;5125995;29;20114;-85
2022/04/17 07:44:15;;;;;;;4.85;2.28;;;;;;;14.96;32.50;100204.03;5139607;28;20433;-86
2022/04/17 07:47:05;;;;;;;6.45;1.98;;;;;;;14.96;33.44;100225.41;5147851;28;20130;-86
2022/04/17 07:49:59;;;;;;;7.50;2.00;;;;;;;14.58;33.25;100212.91;5140531;28;20047;-86
2022/04/17 07:52:51;;;;;;;5.40;1.92;;;;;;;14.38;33.19;100228.03;5126599;29;20294;-86
2022/04/17 07:55:42;;;;;;;3.35;2.08;;;;;;;14.75;33.40;100201.53;5126341;29;20059;-85
2022/04/17 07:58:34;;;;;;;7.68;2.10;;;;;;;14.87;32.25;100209.41;5126626;29;20051;-85
2022/04/17 08:01:24;;;;;;;5.07;2.20;;;;;;;15.63;31.80;100182.63;5113116;29;20626;-85
2022/04/17 08:04:14;;;;;;;2.95;2.05;;;;;;;15.42;31.46;100194.38;5125832;29;20059;-85
2022/04/17 08:07:04;;;;;;;2.80;1.85;;;;;;;16.10;30.80;100207.50;5126268;28;20065;-85
2022/04/17 08:09:55;;;;;;;5.97;1.92;;;;;;;16.57;30.65;100198.44;5126082;28;20058;-85
2022/04/17 08:12:45;;;;;;;2.97;1.63;;;;;;;16.70;30.63;100161.41;5128047;28;20065;-85
2022/04/17 08:15:35;;;;;;;3.70;2.00;;;;;;;15.45;30.45;100127.25;5127554;28;20061;-83
2022/04/17 08:18:25;;;;;;;4.47;2.15;;;;;;;16.96;30.04;100196.31;5121833;28;20421;-85
2022/04/17 08:21:16;;;;;;;2.50;1.83;;;;;;;15.90;29.09;100198.72;5125529;28;20174;-85
2022/04/17 08:24:06;;;;;;;3.75;2.03;;;;;;;16.59;29.17;100165.16;5124339;28;20057;-85
2022/04/17 08:27:00;;;;;;;4.88;2.08;;;;;;;17.49;27.90;100167.66;5125024;28;20054;-84
2022/04/17 08:29:51;;;;;;;2.88;1.70;;;;;;;16.99;28.86;100201.34;5128389;28;20066;-84
2022/04/17 08:32:41;;;;;;;3.55;1.65;;;;;;;18.33;27.28;100187.44;5130442;28;20125;-84
2022/04/17 08:35:32;;;;;;;3.58;1.60;;;;;;;16.98;27.89;100180.06;5120668;28;20106;-83
2022/04/17 08:38:25;;;;;;;2.27;1.53;;;;;;;16.88;29.43;100167.59;5120053;28;20078;-83
2022/04/17 08:41:19;;;;;;;3.10;1.58;;;;;;;17.90;27.86;100151.75;5139773;28;20114;-84
2022/04/17 08:44:09;;;;;;;2.75;1.73;;;;;;;16.78;28.12;100150.78;5131904;28;20077;-83
2022/04/17 08:46:59;;;;;;;3.20;1.67;;;;;;;17.76;28.67;100148.69;5121834;28;20141;-83
2022/04/17 08:49:51;;;;;;;4.68;1.45;;;;;;;18.16;27.39;100144.44;5149084;28;20046;-83
2022/04/17 08:52:45;;;;;;;2.67;1.60;;;;;;;18.00;26.82;100128.31;5128151;28;20054;-83
2022/04/17 08:55:35;;;;;;;1.95;1.42;;;;;;;18.28;27.71;100097.50;5137344;28;20055;-83
2022/04/17 08:58:26;;;;;;;2.58;1.67;;;;;;;17.73;27.94;100132.88;5127711;28;20051;-84
2022/04/17 09:01:19;;;;;;;6.00;1.40;;;;;;;17.78;27.98;100124.38;5124903;28;20511;-83
2022/04/17 09:04:11;;;;;;;1.77;1.40;;;;;;;18.46;26.94;100112.59;5132533;28;20557;-83
2022/04/17 09:07:03;;;;;;;5.13;1.38;;;;;;;18.22;26.39;100111.59;5128513;28;20054;-83
2022/04/17 09:09:56;;;;;;;2.22;1.20;;;;;;;17.93;27.46;100111.19;5125073;28;20086;-83
2022/04/17 09:12:46;;;;;;;2.80;1.50;;;;;;;19.19;25.70;100104.47;5152668;28;20070;-83
2022/04/17 09:15:37;;;;;;;4.10;1.83;;;;;;;19.11;26.12;100112.56;5128610;28;20175;-81
2022/04/17 09:18:29;;;;;;;2.15;1.20;;;;;;;19.24;26.30;100103.97;5133020;28;20058;-83
2022/04/17 09:21:33;;;;;;;2.92;1.70;;;;;;;19.46;26.84;100080.84;5119676;29;20542;-85
2022/04/17 09:24:26;;;;;;;3.00;1.50;;;;;;;18.88;25.81;100084.75;5126011;28;20109;-86
2022/04/17 09:27:17;;;;;;;3.67;1.77;;;;;;;18.33;26.16;100118.47;5112173;28;20058;-86
2022/04/17 09:30:28;;;;;;;2.78;1.60;;;;;;;18.95;27.17;100091.09;5127666;28;20163;-85
2022/04/17 09:33:18;;;;;;;4.88;1.75;;;;;;;19.00;26.37;100043.03;5128223;28;20055;-85
2022/04/17 09:36:08;;;;;;;3.67;1.50;;;;;;;19.76;26.54;100052.31;5135418;28;20094;-84
2022/04/17 09:39:14;;;;;;;2.85;1.67;;;;;;;18.89;25.01;100087.25;5123217;29;20190;-86
2022/04/17 09:42:07;;;;;;;4.25;1.60;;;;;;;19.66;25.26;100079.44;5122010;29;20063;-85
2022/04/17 09:45:07;;;;;;;2.88;1.38;;;;;;;20.03;26.12;100067.09;5121672;29;20117;-85
2022/04/17 09:47:58;;;;;;;2.97;1.40;;;;;;;19.07;25.71;100072.75;5122323;28;20154;-85
2022/04/17 09:50:49;;;;;;;2.15;1.48;;;;;;;16.97;25.69;100103.38;5120961;29;20055;-85
2022/04/17 09:53:40;;;;;;;2.05;1.42;;;;;;;18.15;26.85;100048.84;5122118;29;20422;-85
2022/04/17 09:56:31;;;;;;;2.50;1.60;;;;;;;19.29;26.31;100071.19;5121410;28;20434;-85
2022/04/17 09:59:23;;;;;;;3.63;1.40;;;;;;;19.34;25.54;100066.13;5108619;29;20098;-85
2022/04/17 10:02:15;;;;;;;1.85;1.23;;;;;;;18.61;25.81;100054.53;5135048;28;20074;-85
2022/04/17 10:05:08;;;;;;;3.53;1.40;;;;;;;19.46;26.22;100059.34;5122755;29;20063;-84
2022/04/17 10:07:58;;;;;;;10.05;1.67;;;;;;;16.90;25.99;100039.69;5123290;28;20051;-84
2022/04/17 10:10:49;;;;;;;2.47;1.20;;;;;;;17.64;29.22;100028.41;5108564;29;20062;-84
2022/04/17 10:13:40;;;;;;;2.75;1.38;;;;;;;19.67;26.75;100048.84;5122554;29;20130;-84
2022/04/17 10:16:32;;;;;;;2.78;1.60;;;;;;;18.94;27.27;100059.84;5108003;28;20648;-84
2022/04/17 10:19:24;;;;;;;2.13;1.38;;;;;;;19.53;27.31;100054.09;5122064;29;20091;-85
2022/04/17 10:22:18;;;;;;;2.95;1.70;;;;;;;18.35;27.04;100022.50;5135374;28;20055;-85
2022/04/17 10:25:09;;;;;;;2.60;1.40;;;;;;;18.54;26.19;100023.97;5122080;29;20059;-84
2022/04/17 10:28:03;;;;;;;3.20;1.38;;;;;;;18.96;25.31;100047.09;5135465;28;20138;-84
2022/04/17 10:31:14;;;;;;;2.85;1.45;;;;;;;18.31;24.35;100026.53;5111425;29;20070;-86
2022/04/17 10:34:25;;;;;;;4.25;1.30;;;;;;;17.82;26.52;100042.59;5121944;29;20418;-85
2022/04/17 10:37:52;;;;;;;3.30;1.50;;;;;;;18.20;26.29;100037.59;5122893;28;20077;-85
2022/04/17 10:41:07;;;;;;;3.40;1.33;;;;;;;18.68;25.47;100031.34;5124829;29;20070;-85
2022/04/17 10:44:03;;;;;;;3.55;1.40;;;;;;;18.80;27.42;100007.66;5131183;28;20073;-84
2022/04/17 10:46:54;;;;;;;4.60;1.30;;;;;;;19.39;26.25;100015.34;5109144;28;20374;-85
2022/04/17 10:49:56;;;;;;;7.60;1.40;;;;;;;16.71;26.06;99972.94;5126589;29;20058;-85
2022/04/17 10:52:47;;;;;;;1.90;1.17;;;;;;;17.30;28.22;99981.91;5125766;29;20051;-85
2022/04/17 10:56:01;;;;;;;2.40;1.10;;;;;;;18.17;27.77;100011.06;5125982;29;20441;-85
2022/04/17 10:58:54;;;;;;;3.38;1.30;;;;;;;16.75;26.36;99979.66;5126921;29;20054;-84
2022/04/17 11:01:45;;;;;;;2.00;1.10;;;;;;;17.86;25.84;99995.63;5124859;29;20186;-84
2022/04/17 11:04:54;;;;;;;2.00;1.30;;;;;;;17.17;28.77;100002.97;5108098;29;20062;-85
2022/04/17 11:07:45;;;;;;;3.25;1.63;;;;;;;17.03;27.58;99963.41;5098181;29;20201;-85
2022/04/17 11:10:41;;;;;;;2.55;1.20;;;;;;;17.99;26.43;99936.13;5125066;29;20102;-85
2022/04/17 11:13:34;;;;;;;5.15;1.70;;;;;;;17.18;27.40;100004.66;5138778;28;20182;-85
2022/04/17 11:16:27;;;;;;;2.65;1.15;;;;;;;15.71;27.20;99976.88;5109527;28;20043;-84
2022/04/17 11:19:20;;;;;;;2.95;1.40;;;;;;;16.50;27.43;99972.50;5126013;29;20134;-86
2022/04/17 11:22:16;;;;;;;2.80;1.23;;;;;;;17.21;25.83;99953.41;5111141;29;20141;-84
2022/04/17 11:25:08;;;;;;;4.05;1.38;;;;;;;15.52;27.17;99973.31;5124543;28;20062;-84
2022/04/17 11:28:02;;;;;;;2.92;1.02;;;;;;;16.01;29.04;99977.47;5125008;28;20047;-85
2022/04/17 11:31:30;;;;;;;3.17;1.13;;;;;;;16.70;27.34;99951.69;5125176;29;20106;-85
2022/04/17 11:34:21;;;;;;;2.90;1.40;;;;;;;16.32;27.90;99949.28;5125361;29;20058;-84
2022/04/17 11:37:11;;;;;;;3.88;1.20;;;;;;;17.00;26.08;99920.88;5127336;28;20121;-84
2022/04/17 11:40:15;;;;;;;1.73;1.00;;;;;;;17.36;27.63;99951.78;5125203;29;20601;-85
2022/04/17 11:43:07;;;;;;;1.58;1.20;;;;;;;17.06;27.53;99922.91;5139051;28;20059;-85
2022/04/17 11:46:05;;;;;;;6.13;1.35;;;;;;;16.06;27.28;99927.88;5124961;28;20082;-84
2022/04/17 11:48:55;;;;;;;2.28;1.20;;;;;;;17.44;27.60;99912.56;5119105;29;20090;-85
2022/04/17 11:51:46;;;;;;;1.90;1.33;;;;;;;17.38;27.74;99931.03;5119009;29;20055;-84
2022/04/17 11:54:36;;;;;;;3.17;1.35;;;;;;;16.90;27.16;99948.63;5138910;28;20058;-85
2022/04/17 11:57:26;;;;;;;4.32;1.33;;;;;;;17.65;27.66;99947.81;5119566;29;20138;-85
2022/04/17 12:00:17;;;;;;;3.75;1.50;;;;;;;16.36;27.74;99926.56;5115099;29;20048;-84
2022/04/17 12:03:07;;;;;;;2.72;1.30;;;;;;;16.75;28.38;99926.09;5120738;29;20075;-84
2022/04/17 12:05:59;;;;;;;7.80;1.55;;;;;;;17.17;29.90;99919.06;5136709;28;20051;-85
2022/04/17 12:08:49;;;;;;;2.08;1.30;;;;;;;17.09;27.07;99901.13;5125628;29;20055;-84
2022/04/17 12:11:40;;;;;;;2.53;1.30;;;;;;;16.32;29.33;99903.78;5124026;29;20073;-85
2022/04/17 12:14:32;;;;;;;2.95;1.33;;;;;;;17.61;26.74;99901.72;5124063;29;20055;-85
2022/04/17 12:17:22;;;;;;;1.95;1.02;;;;;;;17.10;27.30;99889.41;5124580;28;20059;-85
2022/04/17 12:20:14;;;;;;;3.47;1.58;;;;;;;17.17;27.67;99903.81;5124383;29;20047;-85
2022/04/17 12:23:05;;;;;;;2.75;1.08;;;;;;;17.28;27.28;99844.53;5138099;28;20051;-84
2022/04/17 12:25:58;;;;;;;3.17;1.30;;;;;;;17.44;27.63;99865.16;5124524;28;20418;-84
2022/04/17 12:28:50;;;;;;;6.72;1.67;;;;;;;17.67;27.48;99862.66;5141139;28;20504;-85
2022/04/17 12:31:40;;;;;;;3.35;1.80;;;;;;;17.73;27.21;99869.19;5125630;29;20043;-85
2022/04/17 12:34:30;;;;;;;2.47;1.35;;;;;;;17.76;27.77;99866.16;5123948;29;20132;-85
2022/04/17 12:37:24;;;;;;;3.20;1.35;;;;;;;17.71;28.18;99857.78;5124070;29;20074;-85
2022/04/17 12:40:21;;;;;;;3.70;1.40;;;;;;;17.03;28.21;99846.34;5124914;29;20109;-84
2022/04/17 12:43:20;;;;;;;1.80;1.00;;;;;;;17.29;27.50;99840.88;5104799;29;20078;-85
2022/04/17 12:46:22;;;;;;;4.30;1.10;;;;;;;16.71;28.30;99862.31;5117606;28;20714;-85
2022/04/17 12:49:18;;;;;;;2.80;1.13;;;;;;;16.77;27.89;99857.16;5125359;29;20059;-85
2022/04/17 12:52:20;;;;;;;3.38;1.55;;;;;;;17.30;27.28;99833.66;5123700;29;20063;-85
2022/04/17 12:55:12;;;;;;;4.82;1.50;;;;;;;17.37;27.66;99805.19;5106632;29;20057;-85
2022/04/17 12:58:02;;;;;;;8.80;1.60;;;;;;;17.19;27.75;99818.75;5124022;29;20157;-84
2022/04/17 13:00:59;;;;;;;3.03;1.40;;;;;;;17.51;26.50;99823.25;5123175;28;20125;-85
2022/04/17 13:03:51;;;;;;;3.72;1.30;;;;;;;18.02;27.44;99825.75;5110903;29;20062;-85
2022/04/17 13:06:41;;;;;;;2.08;1.27;;;;;;;17.83;28.30;99821.59;5109799;29;20466;-84
2022/04/17 13:09:31;;;;;;;2.53;1.52;;;;;;;16.20;27.09;99796.19;5123779;28;20510;-85
2022/04/17 13:12:30;;;;;;;1.27;1.00;;;;;;;17.26;25.68;99808.19;5110453;29;20186;-85
2022/04/17 13:15:37;;;;;;;2.65;1.15;;;;;;;15.92;27.54;99808.06;5137061;28;20117;-84
2022/04/17 13:18:31;;;;;;;3.67;1.40;;;;;;;16.31;28.81;99803.09;5109911;29;20684;-85
2022/04/17 13:21:21;;;;;;;3.13;1.30;;;;;;;16.15;28.61;99782.44;5110469;29;20141;-85
2022/04/17 13:24:13;;;;;;;2.20;1.23;;;;;;;17.23;27.10;99782.56;5124337;29;20294;-85
2022/04/17 13:27:04;;;;;;;1.52;0.98;;;;;;;17.01;27.03;99772.50;5123830;28;20127;-85
2022/04/17 13:29:54;;;;;;;3.58;1.20;;;;;;;16.62;27.11;99765.91;5124076;29;20058;-84
2022/04/17 13:32:44;;;;;;;1.90;1.20;;;;;;;15.86;26.54;99784.63;5123910;29;20497;-85
2022/04/17 13:35:34;;;;;;;1.73;1.23;;;;;;;16.67;27.03;99776.09;5097542;29;20544;-84
2022/04/17 13:38:25;;;;;;;1.67;1.10;;;;;;;16.04;26.32;99753.31;5132193;29;20081;-85
2022/04/17 13:41:15;;;;;;;2.53;1.30;;;;;;;16.42;28.70;99778.72;5109468;29;20146;-85
2022/04/17 13:44:07;;;;;;;4.05;1.65;;;;;;;16.06;28.33;99763.84;5136570;28;20149;-84